createdAt,value
2018-01-21T00:00:38.153Z,48.85
2018-01-21T00:03:04.387Z,48.83
2018-01-21T00:05:30.847Z,48.78
2018-01-21T00:07:57.040Z,48.77
2018-01-21T00:10:23.285Z,48.78
2018-01-21T00:12:49.741Z,48.79
2018-01-21T00:15:15.908Z,48.73
2018-01-21T00:17:42.127Z,48.68
2018-01-21T00:20:08.316Z,48.69
2018-01-21T00:22:40.782Z,48.69
2018-01-21T00:25:06.960Z,48.75
2018-01-21T00:27:33.161Z,48.77
2018-01-21T00:29:59.392Z,48.78
2018-01-21T00:32:25.551Z,48.72
2018-01-21T00:34:51.741Z,48.73
2018-01-21T00:37:18.055Z,48.72
2018-01-21T00:39:44.265Z,48.68
2018-01-21T00:42:10.483Z,48.65
2018-01-21T00:44:37.017Z,48.65
2018-01-21T00:47:03.211Z,48.63
2018-01-21T00:49:29.374Z,48.62
2018-01-21T00:51:56.008Z,48.63
2018-01-21T00:54:22.179Z,48.65
2018-01-21T00:56:48.360Z,48.66
2018-01-21T00:59:14.586Z,48.68
2018-01-21T01:01:40.788Z,48.68
2018-01-21T01:04:07.005Z,48.65
2018-01-21T01:09:05.311Z,48.61
2018-01-21T01:11:31.529Z,48.65
2018-01-21T01:13:57.817Z,48.63
2018-01-21T01:16:24.356Z,48.58
2018-01-21T01:18:50.589Z,48.57
2018-01-21T01:21:17.119Z,48.55
2018-01-21T01:23:43.330Z,48.55
2018-01-21T01:26:09.529Z,48.53
2018-01-21T01:28:35.736Z,48.52
2018-01-21T01:31:01.900Z,48.52
2018-01-21T01:33:28.468Z,48.55
2018-01-21T01:35:54.637Z,48.50
2018-01-21T01:38:20.847Z,48.44
2018-01-21T01:40:47.079Z,48.45
2018-01-21T01:43:13.272Z,48.42
2018-01-21T01:45:39.440Z,48.44
2018-01-21T01:48:05.672Z,48.43
2018-01-21T01:50:31.943Z,48.47
2018-01-21T01:52:58.106Z,48.43
2018-01-21T01:55:24.297Z,48.45
2018-01-21T01:57:56.669Z,48.44
2018-01-21T02:00:22.831Z,48.41
2018-01-21T02:02:49.003Z,48.41
2018-01-21T02:05:15.246Z,48.47
2018-01-21T02:07:41.426Z,48.48
2018-01-21T02:10:07.589Z,48.45
2018-01-21T02:12:34.164Z,48.42
2018-01-21T02:15:00.343Z,48.47
2018-01-21T02:17:26.629Z,48.44
2018-01-21T02:19:52.799Z,48.42
2018-01-21T02:22:19.005Z,48.41
2018-01-21T02:24:45.571Z,48.46
2018-01-21T02:27:11.793Z,48.51
2018-01-21T02:29:38.273Z,48.51
2018-01-21T02:32:04.809Z,48.55
2018-01-21T02:34:30.998Z,48.50
2018-01-21T02:36:57.208Z,48.47
2018-01-21T02:39:23.489Z,48.44
2018-01-21T02:41:49.666Z,48.45
2018-01-21T02:44:15.861Z,48.43
2018-01-21T02:46:42.375Z,48.44
2018-01-21T02:49:08.557Z,48.43
2018-01-21T02:51:34.732Z,48.40
2018-01-21T02:54:00.957Z,48.41
2018-01-21T02:56:27.171Z,48.42
2018-01-21T02:58:53.402Z,48.42
2018-01-21T03:01:20.365Z,48.46
2018-01-21T03:03:46.792Z,48.39
2018-01-21T03:06:13.004Z,48.40
2018-01-21T03:08:39.455Z,48.42
2018-01-21T03:11:05.645Z,48.42
2018-01-21T03:13:31.888Z,48.39
2018-01-21T03:15:58.115Z,48.40
2018-01-21T03:18:24.361Z,48.42
2018-01-21T03:20:50.640Z,48.41
2018-01-21T03:23:16.848Z,48.41
2018-01-21T03:25:43.466Z,48.37
2018-01-21T03:28:09.686Z,48.38
2018-01-21T03:30:35.854Z,48.37
2018-01-21T03:33:02.350Z,48.36
2018-01-21T03:35:28.522Z,48.36
2018-01-21T03:37:54.690Z,48.31
2018-01-21T03:40:20.914Z,48.30
2018-01-21T03:42:47.363Z,48.30
2018-01-21T03:45:13.796Z,48.29
2018-01-21T03:47:40.027Z,48.30
2018-01-21T03:50:06.258Z,48.29
2018-01-21T03:52:32.865Z,48.31
2018-01-21T03:54:59.077Z,48.26
2018-01-21T03:57:25.296Z,48.27
2018-01-21T03:59:51.890Z,48.24
2018-01-21T04:02:18.071Z,48.24
2018-01-21T04:04:44.594Z,48.23
2018-01-21T04:07:10.755Z,48.25
2018-01-21T04:09:36.961Z,48.27
2018-01-21T04:12:03.205Z,48.28
2018-01-21T04:14:29.409Z,48.30
2018-01-21T04:16:55.609Z,48.33
2018-01-21T04:19:21.885Z,48.29
2018-01-21T04:21:48.083Z,48.27
2018-01-21T04:24:14.268Z,48.26
2018-01-21T04:26:40.789Z,48.19
2018-01-21T04:29:06.972Z,48.14
2018-01-21T04:31:33.469Z,48.15
2018-01-21T04:33:59.699Z,48.19
2018-01-21T04:36:25.914Z,48.25
2018-01-21T04:38:52.132Z,48.23
2018-01-21T04:41:18.341Z,48.14
2018-01-21T04:43:44.542Z,48.15
2018-01-21T04:46:10.787Z,48.20
2018-01-21T04:48:37.024Z,48.19
2018-01-21T04:51:03.208Z,48.19
2018-01-21T04:53:29.416Z,48.15
2018-01-21T04:55:55.619Z,48.21
2018-01-21T04:58:21.846Z,48.21
2018-01-21T05:00:48.381Z,48.21
2018-01-21T05:03:14.598Z,48.17
2018-01-21T05:05:40.800Z,48.18
2018-01-21T05:08:07.048Z,48.21
2018-01-21T05:10:33.529Z,48.25
2018-01-21T05:12:59.772Z,48.30
2018-01-21T05:15:26.000Z,48.30
2018-01-21T05:17:52.201Z,48.30
2018-01-21T05:20:18.370Z,48.28
2018-01-21T05:22:44.703Z,48.28
2018-01-21T05:25:10.884Z,48.27
2018-01-21T05:27:37.055Z,48.22
2018-01-21T05:30:03.284Z,48.15
2018-01-21T05:32:29.501Z,48.15
2018-01-21T05:34:55.760Z,48.14
2018-01-21T05:37:21.951Z,48.11
2018-01-21T05:39:48.156Z,48.07
2018-01-21T05:42:14.654Z,48.05
2018-01-21T05:44:40.890Z,48.05
2018-01-21T05:47:07.055Z,48.03
2018-01-21T05:49:33.626Z,48.03
2018-01-21T05:51:59.797Z,48.02
2018-01-21T05:54:26.020Z,47.98
2018-01-21T05:56:52.504Z,47.97
2018-01-21T05:59:18.716Z,47.97
2018-01-21T06:01:44.924Z,48.02
2018-01-21T06:04:11.507Z,48.07
2018-01-21T06:06:38.009Z,48.07
2018-01-21T06:09:04.291Z,48.03
2018-01-21T06:11:30.516Z,48.06
2018-01-21T06:13:56.755Z,48.07
2018-01-21T06:16:22.950Z,48.05
2018-01-21T06:18:49.532Z,48.08
2018-01-21T06:21:16.094Z,48.02
2018-01-21T06:23:42.282Z,48.04
2018-01-21T06:26:08.505Z,48.05
2018-01-21T06:28:35.048Z,48.09
2018-01-21T06:31:01.262Z,48.10
2018-01-21T06:33:27.483Z,48.11
2018-01-21T06:35:53.710Z,48.12
2018-01-21T06:38:19.889Z,48.11
2018-01-21T06:40:46.125Z,48.08
2018-01-21T06:43:12.321Z,48.08
2018-01-21T06:45:38.781Z,48.09
2018-01-21T06:48:05.059Z,48.09
2018-01-21T06:50:31.545Z,48.09
2018-01-21T06:52:57.764Z,48.04
2018-01-21T06:55:24.004Z,48.06
2018-01-21T06:57:50.206Z,48.08
2018-01-21T07:00:16.422Z,48.13
2018-01-21T07:02:42.881Z,48.14
2018-01-21T07:05:09.056Z,48.10
2018-01-21T07:07:35.266Z,48.11
2018-01-21T07:10:01.776Z,48.11
2018-01-21T07:12:27.936Z,48.14
2018-01-21T07:14:54.442Z,48.18
2018-01-21T07:17:20.663Z,48.15
2018-01-21T07:19:46.932Z,48.15
2018-01-21T07:22:13.198Z,48.09
2018-01-21T07:24:39.422Z,48.09
2018-01-21T07:27:05.993Z,48.12
2018-01-21T07:29:32.168Z,48.10
2018-01-21T07:31:58.341Z,48.05
2018-01-21T07:34:24.620Z,48.02
2018-01-21T07:36:50.796Z,47.99
2018-01-21T07:39:16.988Z,47.97
2018-01-21T07:41:43.207Z,47.95
2018-01-21T07:44:09.380Z,47.95
2018-01-21T07:46:35.557Z,47.91
2018-01-21T07:49:02.628Z,47.88
2018-01-21T07:51:29.086Z,47.84
2018-01-21T07:53:55.265Z,47.83
2018-01-21T07:56:21.480Z,47.83
2018-01-21T07:58:47.655Z,47.79
2018-01-21T08:01:13.846Z,47.76
2018-01-21T08:03:40.076Z,47.73
2018-01-21T08:06:06.294Z,47.69
2018-01-21T08:08:32.894Z,47.67
2018-01-21T08:10:59.154Z,47.64
2018-01-21T08:13:25.374Z,47.62
2018-01-21T08:15:51.988Z,47.57
2018-01-21T08:18:18.222Z,47.57
2018-01-21T08:20:44.383Z,47.51
2018-01-21T08:23:10.886Z,47.47
2018-01-21T08:25:37.313Z,47.48
2018-01-21T08:28:03.474Z,47.46
2018-01-21T08:30:29.986Z,47.48
2018-01-21T08:32:56.509Z,47.47
2018-01-21T08:35:28.887Z,47.45
2018-01-21T08:38:01.242Z,47.45
2018-01-21T08:40:33.448Z,47.43
2018-01-21T08:42:59.715Z,47.45
2018-01-21T08:45:25.991Z,47.46
2018-01-21T08:47:52.193Z,47.45
2018-01-21T08:50:18.356Z,47.42
2018-01-21T08:52:44.592Z,47.37
2018-01-21T08:55:10.798Z,47.39
2018-01-21T08:57:37.017Z,47.40
2018-01-21T09:00:03.283Z,47.40
2018-01-21T09:02:29.488Z,47.40
2018-01-21T09:04:55.664Z,47.38
2018-01-21T09:07:22.206Z,47.35
2018-01-21T09:09:48.434Z,47.37
2018-01-21T09:12:14.628Z,47.38
2018-01-21T09:14:40.900Z,47.35
2018-01-21T09:17:07.119Z,47.36
2018-01-21T09:19:33.381Z,47.37
2018-01-21T09:21:59.607Z,47.36
2018-01-21T09:24:25.894Z,47.32
2018-01-21T09:26:52.204Z,47.33
2018-01-21T09:29:18.402Z,47.32
2018-01-21T09:31:44.585Z,47.26
2018-01-21T09:34:10.808Z,47.23
2018-01-21T09:36:37.016Z,47.25
2018-01-21T09:39:03.361Z,47.26
2018-01-21T09:41:29.661Z,47.20
2018-01-21T09:43:55.836Z,47.19
2018-01-21T09:46:22.054Z,47.17
2018-01-21T09:48:48.269Z,47.10
2018-01-21T09:51:14.460Z,47.09
2018-01-21T09:53:40.982Z,47.08
2018-01-21T09:56:07.213Z,47.10
2018-01-21T09:58:33.397Z,47.08
2018-01-21T10:00:59.606Z,47.04
2018-01-21T10:03:25.833Z,47.02
2018-01-21T10:05:52.087Z,46.98
2018-01-21T10:08:18.359Z,46.96
2018-01-21T10:10:44.604Z,46.92
2018-01-21T10:13:10.800Z,46.90
2018-01-21T10:15:37.020Z,46.87
2018-01-21T10:18:03.225Z,46.86
2018-01-21T10:20:29.425Z,46.88
2018-01-21T10:22:55.632Z,46.90
2018-01-21T10:25:22.153Z,46.91
2018-01-21T10:27:48.380Z,46.92
2018-01-21T10:30:14.580Z,46.89
2018-01-21T10:32:40.815Z,46.86
2018-01-21T10:35:07.100Z,46.84
2018-01-21T10:37:33.268Z,46.84
2018-01-21T10:39:59.441Z,46.84
2018-01-21T10:42:25.638Z,46.85
2018-01-21T10:44:51.833Z,46.83
2018-01-21T10:47:18.073Z,46.83
2018-01-21T10:49:44.272Z,46.81
2018-01-21T10:52:10.765Z,46.80
2018-01-21T10:54:36.980Z,46.75
2018-01-21T10:57:03.254Z,46.75
2018-01-21T10:59:29.435Z,46.75
2018-01-21T11:01:55.639Z,46.79
2018-01-21T11:04:22.103Z,46.77
2018-01-21T11:06:48.311Z,46.84
2018-01-21T11:09:14.867Z,46.83
2018-01-21T11:11:41.069Z,46.81
2018-01-21T11:14:07.277Z,46.79
2018-01-21T11:16:33.554Z,46.72
2018-01-21T11:18:59.747Z,46.75
2018-01-21T11:21:25.928Z,46.73
2018-01-21T11:23:52.124Z,46.73
2018-01-21T11:26:18.615Z,46.72
2018-01-21T11:28:44.855Z,46.70
2018-01-21T11:31:11.106Z,46.68
2018-01-21T11:33:37.320Z,46.71
2018-01-21T11:36:03.554Z,46.68
2018-01-21T11:38:29.755Z,46.68
2018-01-21T11:40:56.245Z,46.67
2018-01-21T11:43:22.505Z,46.72
2018-01-21T11:45:49.015Z,46.73
2018-01-21T11:48:15.544Z,46.71
2018-01-21T11:50:41.797Z,46.72
2018-01-21T11:53:07.997Z,46.68
2018-01-21T11:55:34.208Z,46.71
2018-01-21T11:58:00.495Z,46.73
2018-01-21T12:00:26.667Z,46.74
2018-01-21T12:02:52.875Z,46.73
2018-01-21T12:05:19.079Z,46.70
2018-01-21T12:07:45.291Z,46.72
2018-01-21T12:10:11.610Z,46.72
2018-01-21T12:12:37.792Z,46.75
2018-01-21T12:15:04.255Z,46.70
2018-01-21T12:17:30.490Z,46.71
2018-01-21T12:19:56.763Z,46.70
2018-01-21T12:22:22.944Z,46.72
2018-01-21T12:24:49.121Z,46.74
2018-01-21T12:27:15.474Z,46.75
2018-01-21T12:29:41.741Z,46.78
2018-01-21T12:32:07.925Z,46.79
2018-01-21T12:34:34.178Z,46.80
2018-01-21T12:37:00.397Z,46.81
2018-01-21T12:39:26.948Z,46.86
2018-01-21T12:41:53.484Z,46.82
2018-01-21T12:44:19.757Z,46.81
2018-01-21T12:46:45.928Z,46.81
2018-01-21T12:49:12.130Z,46.84
2018-01-21T12:51:38.621Z,46.86
2018-01-21T12:54:04.846Z,46.86
2018-01-21T12:56:31.066Z,46.88
2018-01-21T12:58:57.322Z,46.88
2018-01-21T13:01:23.533Z,46.91
2018-01-21T13:03:49.805Z,46.99
2018-01-21T13:06:16.017Z,47.00
2018-01-21T13:08:42.221Z,46.99
2018-01-21T13:11:08.738Z,46.99
2018-01-21T13:13:34.915Z,47.00
2018-01-21T13:16:01.136Z,47.03
2018-01-21T13:18:27.299Z,47.07
2018-01-21T13:20:53.509Z,47.12
2018-01-21T13:23:20.085Z,47.16
2018-01-21T13:25:46.301Z,47.15
2018-01-21T13:28:12.516Z,47.15
2018-01-21T13:30:39.068Z,47.16
2018-01-21T13:33:05.261Z,47.19
2018-01-21T13:35:31.515Z,47.18
2018-01-21T13:37:58.093Z,47.15
2018-01-21T13:40:24.268Z,47.17
2018-01-21T13:42:50.829Z,47.16
2018-01-21T13:45:16.987Z,47.18
2018-01-21T13:47:43.202Z,47.18
2018-01-21T13:50:09.459Z,47.17
2018-01-21T13:52:35.638Z,47.19
2018-01-21T13:55:02.170Z,47.19
2018-01-21T13:57:28.380Z,47.16
2018-01-21T13:59:54.553Z,47.18
2018-01-21T14:02:20.773Z,47.17
2018-01-21T14:04:46.939Z,47.18
2018-01-21T14:07:13.142Z,47.19
2018-01-21T14:09:39.664Z,47.23
2018-01-21T14:12:05.961Z,47.23
2018-01-21T14:14:32.176Z,47.24
2018-01-21T14:16:58.435Z,47.25
2018-01-21T14:19:24.640Z,47.28
2018-01-21T14:21:50.819Z,47.25
2018-01-21T14:24:17.127Z,47.21
2018-01-21T14:26:43.295Z,47.19
2018-01-21T14:29:09.497Z,47.23
2018-01-21T14:31:35.688Z,47.24
2018-01-21T14:34:01.922Z,47.26
2018-01-21T14:36:28.209Z,47.25
2018-01-21T14:38:54.693Z,47.25
2018-01-21T14:41:20.954Z,47.24
2018-01-21T14:43:47.453Z,47.25
2018-01-21T14:46:13.637Z,47.27
2018-01-21T14:48:39.835Z,47.25
2018-01-21T14:51:06.026Z,47.25
2018-01-21T14:53:32.280Z,47.29
2018-01-21T14:55:58.498Z,47.26
2018-01-21T14:58:24.749Z,47.28
2018-01-21T15:00:51.563Z,47.31
2018-01-21T15:03:17.807Z,47.30
2018-01-21T15:05:44.023Z,47.29
2018-01-21T15:08:10.268Z,47.30
2018-01-21T15:10:36.793Z,47.33
2018-01-21T15:13:03.006Z,47.36
2018-01-21T15:15:29.228Z,47.38
2018-01-21T15:17:55.706Z,47.39
2018-01-21T15:20:21.960Z,47.37
2018-01-21T15:22:48.174Z,47.36
2018-01-21T15:25:14.459Z,47.36
2018-01-21T15:27:40.682Z,47.39
2018-01-21T15:30:06.978Z,47.35
2018-01-21T15:32:33.201Z,47.40
2018-01-21T15:34:59.781Z,47.40
2018-01-21T15:37:26.000Z,47.38
2018-01-21T15:39:52.232Z,47.38
2018-01-21T15:42:18.518Z,47.32
2018-01-21T15:44:44.712Z,47.28
2018-01-21T15:47:10.938Z,47.27
2018-01-21T15:49:37.562Z,47.30
2018-01-21T15:52:03.805Z,47.33
2018-01-21T15:54:30.018Z,47.32
2018-01-21T15:56:56.855Z,47.31
2018-01-21T15:59:23.057Z,47.28
2018-01-21T16:01:49.300Z,47.27
2018-01-21T16:04:15.539Z,47.29
2018-01-21T16:06:42.119Z,47.28
2018-01-21T16:09:08.382Z,47.28
2018-01-21T16:11:34.609Z,47.25
2018-01-21T16:14:00.864Z,47.26
2018-01-21T16:16:27.062Z,47.25
2018-01-21T16:18:53.341Z,47.24
2018-01-21T16:21:19.560Z,47.20
2018-01-21T16:23:45.775Z,47.19
2018-01-21T16:26:18.425Z,47.18
2018-01-21T16:28:44.994Z,47.21
2018-01-21T16:31:11.221Z,47.26
2018-01-21T16:33:37.490Z,47.28
2018-01-21T16:36:03.934Z,47.30
2018-01-21T16:38:42.272Z,47.31
2018-01-21T16:41:08.459Z,47.30
2018-01-21T16:43:34.958Z,47.31
2018-01-21T16:46:01.225Z,47.32
2018-01-21T16:48:27.458Z,47.35
2018-01-21T16:50:53.658Z,47.35
2018-01-21T16:53:19.935Z,47.34
2018-01-21T16:55:46.137Z,47.34
2018-01-21T16:58:12.299Z,47.31
2018-01-21T17:00:38.568Z,47.29
2018-01-21T17:03:04.778Z,47.30
2018-01-21T17:05:30.961Z,47.30
2018-01-21T17:07:57.200Z,47.31
2018-01-21T17:10:23.417Z,47.29
2018-01-21T17:12:50.310Z,47.27
2018-01-21T17:15:16.496Z,47.29
2018-01-21T17:17:42.720Z,47.31
2018-01-21T17:20:08.941Z,47.30
2018-01-21T17:22:35.166Z,47.30
2018-01-21T17:25:01.437Z,47.28
2018-01-21T17:27:27.985Z,47.29
2018-01-21T17:29:54.301Z,47.30
2018-01-21T17:32:20.549Z,47.33
2018-01-21T17:34:46.745Z,47.34
2018-01-21T17:37:13.160Z,47.32
2018-01-21T17:39:39.438Z,47.29
2018-01-21T17:42:05.603Z,47.24
2018-01-21T17:44:32.069Z,47.29
2018-01-21T17:46:58.279Z,47.31
2018-01-21T17:49:24.489Z,47.32
2018-01-21T17:51:50.783Z,47.29
2018-01-21T17:54:16.994Z,47.28
2018-01-21T17:56:43.179Z,47.29
2018-01-21T17:59:09.387Z,47.25
2018-01-21T18:01:35.665Z,47.21
2018-01-21T18:04:02.320Z,47.21
2018-01-21T18:06:28.545Z,47.22
2018-01-21T18:08:54.762Z,47.21
2018-01-21T18:11:21.005Z,47.20
2018-01-21T18:13:47.185Z,47.20
2018-01-21T18:16:13.398Z,47.20
2018-01-21T18:18:39.663Z,47.21
2018-01-21T18:21:05.886Z,47.20
2018-01-21T18:23:32.415Z,47.22
2018-01-21T18:25:58.999Z,47.20
2018-01-21T18:28:25.175Z,47.17
2018-01-21T18:30:51.510Z,47.17
2018-01-21T18:33:17.761Z,47.17
2018-01-21T18:35:44.212Z,47.17
2018-01-21T18:38:10.416Z,47.15
2018-01-21T18:40:36.609Z,47.15
2018-01-21T18:43:02.835Z,47.17
2018-01-21T18:45:29.029Z,47.20
2018-01-21T18:47:55.462Z,47.20
2018-01-21T18:50:21.697Z,47.21
2018-01-21T18:52:47.902Z,47.18
2018-01-21T18:55:14.131Z,47.20
2018-01-21T18:57:40.758Z,47.18
2018-01-21T19:00:06.989Z,47.16
2018-01-21T19:02:33.222Z,47.16
2018-01-21T19:04:59.472Z,47.19
2018-01-21T19:07:25.710Z,47.23
2018-01-21T19:09:52.335Z,47.25
2018-01-21T19:12:18.529Z,47.24
2018-01-21T19:14:44.751Z,47.24
2018-01-21T19:17:11.049Z,47.25
2018-01-21T19:19:37.276Z,47.24
2018-01-21T19:22:03.490Z,47.22
2018-01-21T19:24:30.014Z,47.21
2018-01-21T19:26:56.193Z,47.21
2018-01-21T19:29:22.482Z,47.23
2018-01-21T19:31:49.018Z,47.23
2018-01-21T19:34:15.322Z,47.28
2018-01-21T19:36:41.547Z,47.26
2018-01-21T19:42:09.980Z,47.25
2018-01-21T19:44:37.208Z,47.23
2018-01-21T19:47:03.455Z,47.21
2018-01-21T19:49:29.684Z,47.13
2018-01-21T19:51:55.876Z,47.11
2018-01-21T19:54:22.125Z,47.12
2018-01-21T19:56:48.571Z,47.13
2018-01-21T19:59:14.778Z,47.11
2018-01-21T20:01:41.041Z,47.10
2018-01-21T20:04:07.340Z,47.08
2018-01-21T20:06:33.646Z,47.07
2018-01-21T20:08:59.823Z,47.07
2018-01-21T20:11:25.999Z,47.05
2018-01-21T20:13:52.232Z,47.05
2018-01-21T20:16:18.408Z,47.07
2018-01-21T20:18:44.592Z,47.08
2018-01-21T20:21:10.874Z,47.05
2018-01-21T20:23:37.373Z,47.05
2018-01-21T20:26:03.564Z,47.02
2018-01-21T20:28:29.777Z,46.99
2018-01-21T20:30:55.982Z,46.97
2018-01-21T20:33:22.289Z,46.96
2018-01-21T20:35:48.462Z,46.96
2018-01-21T20:38:14.672Z,46.97
2018-01-21T20:40:41.132Z,47.00
2018-01-21T20:43:07.342Z,47.05
2018-01-21T20:45:33.547Z,47.09
2018-01-21T20:47:59.812Z,47.14
2018-01-21T20:50:25.999Z,47.16
2018-01-21T20:52:52.159Z,47.16
2018-01-21T20:55:18.688Z,47.22
2018-01-21T20:57:44.902Z,47.25
2018-01-21T21:00:11.087Z,47.26
2018-01-21T21:02:37.373Z,47.25
2018-01-21T21:05:03.626Z,47.23
2018-01-21T21:07:29.841Z,47.24
2018-01-21T21:09:56.071Z,47.27
2018-01-21T21:12:22.296Z,47.28
2018-01-21T21:14:48.493Z,47.30
2018-01-21T21:17:14.688Z,47.29
2018-01-21T21:19:40.949Z,47.31
2018-01-21T21:22:07.206Z,47.32
2018-01-21T21:24:33.424Z,47.35
2018-01-21T21:26:59.633Z,47.36
2018-01-21T21:29:25.917Z,47.37
2018-01-21T21:31:52.153Z,47.39
2018-01-21T21:34:18.377Z,47.39
2018-01-21T21:36:44.609Z,47.41
2018-01-21T21:39:10.808Z,47.37
2018-01-21T21:41:37.043Z,47.38
2018-01-21T21:44:03.216Z,47.36
2018-01-21T21:46:29.422Z,47.38
2018-01-21T21:48:55.945Z,47.34
2018-01-21T21:51:22.360Z,47.34
2018-01-21T21:53:48.594Z,47.40
2018-01-21T21:56:14.833Z,47.36
2018-01-21T21:58:41.011Z,47.36
2018-01-21T22:01:07.244Z,47.33
2018-01-21T22:03:33.444Z,47.32
2018-01-21T22:05:59.676Z,47.30
2018-01-21T22:08:26.000Z,47.26
2018-01-21T22:10:52.471Z,47.24
2018-01-21T22:13:18.654Z,47.25
2018-01-21T22:15:45.271Z,47.25
2018-01-21T22:18:11.505Z,47.19
2018-01-21T22:20:37.694Z,47.18
2018-01-21T22:23:03.949Z,47.15
2018-01-21T22:25:30.118Z,47.16
2018-01-21T22:27:56.291Z,47.10
2018-01-21T22:30:22.480Z,47.11
2018-01-21T22:32:48.665Z,47.15
2018-01-21T22:35:14.926Z,47.19
2018-01-21T22:37:41.124Z,47.23
2018-01-21T22:40:07.290Z,47.19
2018-01-21T22:42:33.612Z,47.16
2018-01-21T22:44:59.837Z,47.16
2018-01-21T22:47:26.138Z,47.17
2018-01-21T22:49:52.422Z,47.22
2018-01-21T22:52:18.635Z,47.22
2018-01-21T22:54:44.949Z,47.19
2018-01-21T22:57:11.527Z,47.19
2018-01-21T22:59:37.737Z,47.19
2018-01-21T23:02:03.962Z,47.21
2018-01-21T23:04:30.428Z,47.20
2018-01-21T23:06:56.636Z,47.21
2018-01-21T23:09:23.093Z,47.23
2018-01-21T23:11:49.373Z,47.25
2018-01-21T23:14:15.792Z,47.20
2018-01-21T23:16:41.993Z,47.18
2018-01-21T23:19:08.219Z,47.16
2018-01-21T23:21:34.689Z,47.12
2018-01-21T23:24:01.224Z,47.10
2018-01-21T23:26:27.948Z,47.17
2018-01-21T23:28:54.141Z,47.16
2018-01-21T23:31:20.369Z,47.13
2018-01-21T23:33:46.603Z,47.11
2018-01-21T23:36:12.843Z,47.16
2018-01-21T23:38:39.019Z,47.17
2018-01-21T23:41:05.331Z,47.12
2018-01-21T23:43:31.532Z,47.19
2018-01-21T23:45:57.762Z,47.16
2018-01-21T23:48:24.633Z,47.17
2018-01-21T23:50:50.833Z,47.16
2018-01-21T23:53:17.012Z,47.17
2018-01-21T23:55:43.287Z,47.17
2018-01-21T23:58:09.469Z,47.13
